sensor_id;sensor_type;location;lat;lon;timestamp;P1;durP1;ratioP1;P2;durP2;ratioP2
60233;SDS011;49514;43.538;-5.708;2023-02-28T00:00:34;8.00;;;3.45;;
60233;SDS011;49514;43.538;-5.708;2023-02-28T00:03:02;10.70;;;3.83;;
60233;SDS011;49514;43.538;-5.708;2023-02-28T00:05:29;9.55;;;3.55;;
60233;SDS011;49514;43.538;-5.708;2023-02-28T00:07:56;8.55;;;3.03;;
60233;SDS011;49514;43.538;-5.708;2023-02-28T00:10:26;8.70;;;3.42;;
60233;SDS011;49514;43.538;-5.708;2023-02-28T00:12:56;8.07;;;3.17;;
60233;SDS011;49514;43.538;-5.708;2023-02-28T00:15:27;10.35;;;3.50;;
60233;SDS011;49514;43.538;-5.708;2023-02-28T00:17:54;8.00;;;3.03;;
60233;SDS011;49514;43.538;-5.708;2023-02-28T00:20:21;8.43;;;3.35;;
60233;SDS011;49514;43.538;-5.708;2023-02-28T00:22:49;8.52;;;2.92;;
60233;SDS011;49514;43.538;-5.708;2023-02-28T00:25:18;5.93;;;2.33;;
60233;SDS011;49514;43.538;-5.708;2023-02-28T00:27:47;9.75;;;2.30;;
60233;SDS011;49514;43.538;-5.708;2023-02-28T00:30:15;9.13;;;2.38;;
60233;SDS011;49514;43.538;-5.708;2023-02-28T00:32:45;4.05;;;1.88;;
60233;SDS011;49514;43.538;-5.708;2023-02-28T00:35:11;7.53;;;1.85;;
60233;SDS011;49514;43.538;-5.708;2023-02-28T00:37:41;4.50;;;1.85;;
60233;SDS011;49514;43.538;-5.708;2023-02-28T00:40:10;6.85;;;2.40;;
60233;SDS011;49514;43.538;-5.708;2023-02-28T00:42:38;5.22;;;1.92;;
60233;SDS011;49514;43.538;-5.708;2023-02-28T00:45:05;6.22;;;3.08;;
60233;SDS011;49514;43.538;-5.708;2023-02-28T00:47:34;20.27;;;6.03;;
60233;SDS011;49514;43.538;-5.708;2023-02-28T00:50:00;11.75;;;3.75;;
60233;SDS011;49514;43.538;-5.708;2023-02-28T00:52:28;9.38;;;4.18;;
60233;SDS011;49514;43.538;-5.708;2023-02-28T00:54:55;13.80;;;3.03;;
60233;SDS011;49514;43.538;-5.708;2023-02-28T00:57:21;7.53;;;2.70;;
60233;SDS011;49514;43.538;-5.708;2023-02-28T01:00:00;9.90;;;2.53;;
60233;SDS011;49514;43.538;-5.708;2023-02-28T01:02:27;11.23;;;3.45;;
60233;SDS011;49514;43.538;-5.708;2023-02-28T01:04:53;15.68;;;3.17;;
60233;SDS011;49514;43.538;-5.708;2023-02-28T01:07:20;13.55;;;3.30;;
60233;SDS011;49514;43.538;-5.708;2023-02-28T01:09:47;13.77;;;3.97;;
60233;SDS011;49514;43.538;-5.708;2023-02-28T01:12:14;16.52;;;3.65;;
60233;SDS011;49514;43.538;-5.708;2023-02-28T01:14:41;13.05;;;3.33;;
60233;SDS011;49514;43.538;-5.708;2023-02-28T01:17:08;13.00;;;3.28;;
60233;SDS011;49514;43.538;-5.708;2023-02-28T01:19:35;8.85;;;2.67;;
60233;SDS011;49514;43.538;-5.708;2023-02-28T01:22:05;9.52;;;2.92;;
60233;SDS011;49514;43.538;-5.708;2023-02-28T01:24:34;6.13;;;2.35;;
60233;SDS011;49514;43.538;-5.708;2023-02-28T01:27:01;4.45;;;2.05;;
60233;SDS011;49514;43.538;-5.708;2023-02-28T01:29:28;5.13;;;2.17;;
60233;SDS011;49514;43.538;-5.708;2023-02-28T01:31:54;13.63;;;3.08;;
60233;SDS011;49514;43.538;-5.708;2023-02-28T01:34:22;9.80;;;2.95;;
60233;SDS011;49514;43.538;-5.708;2023-02-28T01:36:50;9.60;;;2.85;;
60233;SDS011;49514;43.538;-5.708;2023-02-28T01:39:18;8.52;;;2.78;;
60233;SDS011;49514;43.538;-5.708;2023-02-28T01:41:45;7.35;;;2.38;;
60233;SDS011;49514;43.538;-5.708;2023-02-28T01:47:15;6.90;;;2.13;;
60233;SDS011;49514;43.538;-5.708;2023-02-28T01:49:42;13.25;;;2.42;;
60233;SDS011;49514;43.538;-5.708;2023-02-28T01:52:09;7.75;;;2.05;;
60233;SDS011;49514;43.538;-5.708;2023-02-28T01:54:48;5.82;;;2.38;;
60233;SDS011;49514;43.538;-5.708;2023-02-28T01:57:25;6.38;;;2.58;;
60233;SDS011;49514;43.538;-5.708;2023-02-28T01:59:57;12.52;;;4.38;;
60233;SDS011;49514;43.538;-5.708;2023-02-28T02:02:39;11.80;;;4.32;;
60233;SDS011;49514;43.538;-5.708;2023-02-28T02:05:10;12.63;;;6.13;;
60233;SDS011;49514;43.538;-5.708;2023-02-28T02:07:43;15.48;;;5.35;;
60233;SDS011;49514;43.538;-5.708;2023-02-28T02:10:16;11.38;;;4.97;;
60233;SDS011;49514;43.538;-5.708;2023-02-28T02:37:46;9.48;;;3.42;;
60233;SDS011;49514;43.538;-5.708;2023-02-28T02:40:25;8.52;;;2.72;;
60233;SDS011;49514;43.538;-5.708;2023-02-28T02:43:07;7.78;;;2.85;;
60233;SDS011;49514;43.538;-5.708;2023-02-28T02:45:47;8.02;;;2.90;;
60233;SDS011;49514;43.538;-5.708;2023-02-28T02:48:25;6.15;;;2.60;;
60233;SDS011;49514;43.538;-5.708;2023-02-28T02:50:58;8.82;;;2.78;;
60233;SDS011;49514;43.538;-5.708;2023-02-28T02:53:34;7.38;;;2.95;;
60233;SDS011;49514;43.538;-5.708;2023-02-28T02:58:33;8.15;;;2.70;;
60233;SDS011;49514;43.538;-5.708;2023-02-28T03:01:11;9.40;;;3.15;;
60233;SDS011;49514;43.538;-5.708;2023-02-28T03:03:42;10.63;;;2.92;;
60233;SDS011;49514;43.538;-5.708;2023-02-28T03:06:10;8.05;;;3.03;;
60233;SDS011;49514;43.538;-5.708;2023-02-28T03:08:37;10.57;;;3.17;;
60233;SDS011;49514;43.538;-5.708;2023-02-28T03:11:05;12.48;;;3.28;;
60233;SDS011;49514;43.538;-5.708;2023-02-28T03:19:37;12.75;;;3.63;;
60233;SDS011;49514;43.538;-5.708;2023-02-28T03:27:45;11.18;;;4.65;;
60233;SDS011;49514;43.538;-5.708;2023-02-28T03:30:15;18.85;;;5.10;;
60233;SDS011;49514;43.538;-5.708;2023-02-28T03:32:51;14.77;;;4.65;;
60233;SDS011;49514;43.538;-5.708;2023-02-28T03:35:23;12.80;;;5.18;;
60233;SDS011;49514;43.538;-5.708;2023-02-28T03:37:55;12.98;;;5.38;;
60233;SDS011;49514;43.538;-5.708;2023-02-28T03:40:30;9.85;;;4.43;;
60233;SDS011;49514;43.538;-5.708;2023-02-28T03:43:02;10.77;;;3.80;;
60233;SDS011;49514;43.538;-5.708;2023-02-28T03:45:35;16.33;;;4.70;;
60233;SDS011;49514;43.538;-5.708;2023-02-28T03:51:18;8.18;;;3.42;;
60233;SDS011;49514;43.538;-5.708;2023-02-28T03:53:50;8.80;;;3.88;;
60233;SDS011;49514;43.538;-5.708;2023-02-28T04:01:45;6.68;;;3.00;;
60233;SDS011;49514;43.538;-5.708;2023-02-28T04:04:16;11.57;;;3.30;;
60233;SDS011;49514;43.538;-5.708;2023-02-28T04:06:44;8.45;;;3.10;;
60233;SDS011;49514;43.538;-5.708;2023-02-28T04:09:12;11.80;;;3.60;;
60233;SDS011;49514;43.538;-5.708;2023-02-28T04:11:41;10.63;;;3.10;;
60233;SDS011;49514;43.538;-5.708;2023-02-28T04:14:13;8.90;;;3.30;;
60233;SDS011;49514;43.538;-5.708;2023-02-28T04:16:40;6.68;;;2.97;;
60233;SDS011;49514;43.538;-5.708;2023-02-28T04:19:08;8.32;;;3.25;;
60233;SDS011;49514;43.538;-5.708;2023-02-28T04:21:37;8.40;;;3.30;;
60233;SDS011;49514;43.538;-5.708;2023-02-28T04:24:06;11.00;;;3.38;;
60233;SDS011;49514;43.538;-5.708;2023-02-28T04:26:36;9.02;;;3.63;;
60233;SDS011;49514;43.538;-5.708;2023-02-28T04:29:04;11.25;;;3.83;;
60233;SDS011;49514;43.538;-5.708;2023-02-28T04:31:33;13.15;;;3.75;;
60233;SDS011;49514;43.538;-5.708;2023-02-28T04:34:00;8.73;;;3.30;;
60233;SDS011;49514;43.538;-5.708;2023-02-28T04:36:27;9.57;;;3.20;;
60233;SDS011;49514;43.538;-5.708;2023-02-28T04:38:54;9.93;;;3.88;;
60233;SDS011;49514;43.538;-5.708;2023-02-28T04:41:21;11.32;;;3.75;;
60233;SDS011;49514;43.538;-5.708;2023-02-28T04:43:48;7.88;;;3.15;;
60233;SDS011;49514;43.538;-5.708;2023-02-28T04:46:17;9.73;;;3.45;;
60233;SDS011;49514;43.538;-5.708;2023-02-28T04:48:44;10.93;;;4.35;;
60233;SDS011;49514;43.538;-5.708;2023-02-28T04:51:12;8.32;;;2.88;;
60233;SDS011;49514;43.538;-5.708;2023-02-28T04:53:41;7.40;;;2.88;;
60233;SDS011;49514;43.538;-5.708;2023-02-28T04:56:10;7.93;;;2.85;;
60233;SDS011;49514;43.538;-5.708;2023-02-28T04:58:38;8.75;;;3.40;;
60233;SDS011;49514;43.538;-5.708;2023-02-28T05:01:06;10.45;;;3.30;;
60233;SDS011;49514;43.538;-5.708;2023-02-28T05:03:42;13.90;;;3.22;;
60233;SDS011;49514;43.538;-5.708;2023-02-28T05:06:10;10.60;;;3.58;;
60233;SDS011;49514;43.538;-5.708;2023-02-28T05:08:38;9.25;;;3.30;;
60233;SDS011;49514;43.538;-5.708;2023-02-28T05:11:06;8.18;;;3.20;;
60233;SDS011;49514;43.538;-5.708;2023-02-28T05:13:39;7.97;;;3.03;;
60233;SDS011;49514;43.538;-5.708;2023-02-28T05:16:06;9.60;;;3.00;;
60233;SDS011;49514;43.538;-5.708;2023-02-28T05:18:33;9.50;;;3.20;;
60233;SDS011;49514;43.538;-5.708;2023-02-28T05:20:59;10.07;;;3.35;;
60233;SDS011;49514;43.538;-5.708;2023-02-28T05:23:29;7.65;;;2.70;;
60233;SDS011;49514;43.538;-5.708;2023-02-28T05:25:56;6.07;;;2.50;;
60233;SDS011;49514;43.538;-5.708;2023-02-28T05:28:23;10.20;;;2.95;;
60233;SDS011;49514;43.538;-5.708;2023-02-28T05:30:49;10.68;;;2.88;;
60233;SDS011;49514;43.538;-5.708;2023-02-28T05:33:16;9.68;;;2.65;;
60233;SDS011;49514;43.538;-5.708;2023-02-28T05:35:43;8.38;;;2.90;;
60233;SDS011;49514;43.538;-5.708;2023-02-28T05:38:09;6.75;;;2.63;;
60233;SDS011;49514;43.538;-5.708;2023-02-28T05:40:37;9.65;;;2.80;;
60233;SDS011;49514;43.538;-5.708;2023-02-28T05:43:05;7.95;;;2.72;;
60233;SDS011;49514;43.538;-5.708;2023-02-28T05:45:32;9.93;;;2.83;;
60233;SDS011;49514;43.538;-5.708;2023-02-28T05:47:58;8.40;;;2.97;;
60233;SDS011;49514;43.538;-5.708;2023-02-28T05:50:25;5.75;;;2.83;;
60233;SDS011;49514;43.538;-5.708;2023-02-28T05:52:52;7.10;;;2.70;;
60233;SDS011;49514;43.538;-5.708;2023-02-28T05:55:18;7.57;;;2.33;;
60233;SDS011;49514;43.538;-5.708;2023-02-28T05:57:45;6.70;;;2.75;;
60233;SDS011;49514;43.538;-5.708;2023-02-28T06:00:12;8.00;;;2.30;;
60233;SDS011;49514;43.538;-5.708;2023-02-28T06:02:40;4.05;;;2.13;;
60233;SDS011;49514;43.538;-5.708;2023-02-28T06:05:10;6.95;;;2.45;;
60233;SDS011;49514;43.538;-5.708;2023-02-28T06:07:39;10.45;;;2.50;;
60233;SDS011;49514;43.538;-5.708;2023-02-28T06:10:06;7.50;;;2.30;;
60233;SDS011;49514;43.538;-5.708;2023-02-28T06:12:33;6.60;;;2.20;;
60233;SDS011;49514;43.538;-5.708;2023-02-28T06:15:00;5.68;;;2.15;;
60233;SDS011;49514;43.538;-5.708;2023-02-28T06:17:27;12.15;;;3.00;;
60233;SDS011;49514;43.538;-5.708;2023-02-28T06:19:54;8.27;;;2.15;;
60233;SDS011;49514;43.538;-5.708;2023-02-28T06:22:20;9.88;;;3.75;;
60233;SDS011;49514;43.538;-5.708;2023-02-28T06:24:47;8.00;;;2.38;;
60233;SDS011;49514;43.538;-5.708;2023-02-28T06:27:13;7.47;;;2.42;;
60233;SDS011;49514;43.538;-5.708;2023-02-28T06:29:40;9.25;;;2.10;;
60233;SDS011;49514;43.538;-5.708;2023-02-28T06:32:07;13.00;;;2.40;;
60233;SDS011;49514;43.538;-5.708;2023-02-28T06:34:34;9.73;;;2.63;;
60233;SDS011;49514;43.538;-5.708;2023-02-28T06:37:01;8.63;;;2.67;;
60233;SDS011;49514;43.538;-5.708;2023-02-28T06:39:29;19.70;;;2.95;;
60233;SDS011;49514;43.538;-5.708;2023-02-28T06:41:56;8.60;;;2.33;;
60233;SDS011;49514;43.538;-5.708;2023-02-28T06:44:23;13.60;;;3.15;;
60233;SDS011;49514;43.538;-5.708;2023-02-28T06:46:50;6.80;;;2.10;;
60233;SDS011;49514;43.538;-5.708;2023-02-28T06:49:17;7.22;;;2.60;;
60233;SDS011;49514;43.538;-5.708;2023-02-28T06:51:44;12.32;;;3.25;;
60233;SDS011;49514;43.538;-5.708;2023-02-28T06:54:11;7.95;;;2.50;;
60233;SDS011;49514;43.538;-5.708;2023-02-28T06:56:38;10.68;;;2.30;;
60233;SDS011;49514;43.538;-5.708;2023-02-28T06:59:05;6.32;;;2.75;;
60233;SDS011;49514;43.538;-5.708;2023-02-28T07:01:32;13.02;;;2.97;;
60233;SDS011;49514;43.538;-5.708;2023-02-28T07:03:59;6.35;;;2.78;;
60233;SDS011;49514;43.538;-5.708;2023-02-28T07:06:26;10.60;;;2.63;;
60233;SDS011;49514;43.538;-5.708;2023-02-28T07:08:53;8.63;;;2.97;;
60233;SDS011;49514;43.538;-5.708;2023-02-28T07:11:21;6.32;;;2.55;;
60233;SDS011;49514;43.538;-5.708;2023-02-28T07:13:51;10.63;;;2.95;;
60233;SDS011;49514;43.538;-5.708;2023-02-28T07:16:22;8.52;;;2.70;;
60233;SDS011;49514;43.538;-5.708;2023-02-28T07:18:54;9.65;;;2.97;;
60233;SDS011;49514;43.538;-5.708;2023-02-28T07:21:21;9.25;;;3.28;;
60233;SDS011;49514;43.538;-5.708;2023-02-28T07:23:48;8.70;;;2.95;;
60233;SDS011;49514;43.538;-5.708;2023-02-28T07:26:16;10.48;;;2.75;;
60233;SDS011;49514;43.538;-5.708;2023-02-28T07:28:45;10.35;;;3.55;;
60233;SDS011;49514;43.538;-5.708;2023-02-28T07:31:13;13.35;;;3.50;;
60233;SDS011;49514;43.538;-5.708;2023-02-28T07:33:41;14.43;;;3.50;;
60233;SDS011;49514;43.538;-5.708;2023-02-28T07:36:09;13.13;;;3.42;;
60233;SDS011;49514;43.538;-5.708;2023-02-28T07:38:41;12.70;;;3.13;;
60233;SDS011;49514;43.538;-5.708;2023-02-28T07:41:09;13.25;;;3.20;;
60233;SDS011;49514;43.538;-5.708;2023-02-28T07:43:36;9.38;;;2.80;;
60233;SDS011;49514;43.538;-5.708;2023-02-28T07:46:03;9.00;;;3.33;;
60233;SDS011;49514;43.538;-5.708;2023-02-28T07:48:32;7.75;;;3.40;;
60233;SDS011;49514;43.538;-5.708;2023-02-28T07:50:59;9.75;;;3.65;;
60233;SDS011;49514;43.538;-5.708;2023-02-28T07:53:26;11.68;;;3.45;;
60233;SDS011;49514;43.538;-5.708;2023-02-28T07:55:55;8.88;;;3.10;;
60233;SDS011;49514;43.538;-5.708;2023-02-28T07:58:22;8.00;;;2.83;;
60233;SDS011;49514;43.538;-5.708;2023-02-28T08:00:50;11.02;;;3.00;;
60233;SDS011;49514;43.538;-5.708;2023-02-28T08:03:17;6.65;;;3.00;;
60233;SDS011;49514;43.538;-5.708;2023-02-28T08:05:45;8.10;;;2.80;;
60233;SDS011;49514;43.538;-5.708;2023-02-28T08:08:11;8.93;;;2.92;;
60233;SDS011;49514;43.538;-5.708;2023-02-28T08:10:38;10.70;;;3.22;;
60233;SDS011;49514;43.538;-5.708;2023-02-28T08:13:05;8.05;;;3.00;;
60233;SDS011;49514;43.538;-5.708;2023-02-28T08:15:31;9.52;;;3.50;;
60233;SDS011;49514;43.538;-5.708;2023-02-28T08:17:58;6.10;;;2.75;;
60233;SDS011;49514;43.538;-5.708;2023-02-28T08:20:25;6.88;;;2.90;;
60233;SDS011;49514;43.538;-5.708;2023-02-28T08:22:52;10.75;;;3.08;;
60233;SDS011;49514;43.538;-5.708;2023-02-28T08:25:19;10.90;;;2.70;;
60233;SDS011;49514;43.538;-5.708;2023-02-28T08:27:46;10.75;;;3.00;;
60233;SDS011;49514;43.538;-5.708;2023-02-28T08:30:13;9.25;;;3.13;;
60233;SDS011;49514;43.538;-5.708;2023-02-28T08:32:41;14.55;;;4.30;;
60233;SDS011;49514;43.538;-5.708;2023-02-28T08:35:07;13.70;;;4.07;;
60233;SDS011;49514;43.538;-5.708;2023-02-28T08:37:37;15.82;;;3.65;;
60233;SDS011;49514;43.538;-5.708;2023-02-28T08:40:04;12.55;;;3.80;;
60233;SDS011;49514;43.538;-5.708;2023-02-28T08:42:32;12.07;;;2.90;;
60233;SDS011;49514;43.538;-5.708;2023-02-28T08:45:14;18.88;;;4.22;;
60233;SDS011;49514;43.538;-5.708;2023-02-28T08:47:41;19.75;;;3.78;;
60233;SDS011;49514;43.538;-5.708;2023-02-28T08:50:08;12.32;;;3.85;;
60233;SDS011;49514;43.538;-5.708;2023-02-28T08:52:36;12.13;;;3.75;;
60233;SDS011;49514;43.538;-5.708;2023-02-28T08:55:04;15.30;;;3.65;;
60233;SDS011;49514;43.538;-5.708;2023-02-28T08:57:31;10.68;;;3.38;;
60233;SDS011;49514;43.538;-5.708;2023-02-28T08:59:59;11.43;;;3.35;;
60233;SDS011;49514;43.538;-5.708;2023-02-28T09:02:30;12.45;;;3.53;;
60233;SDS011;49514;43.538;-5.708;2023-02-28T09:04:57;16.08;;;4.10;;
60233;SDS011;49514;43.538;-5.708;2023-02-28T09:07:24;18.77;;;4.95;;
60233;SDS011;49514;43.538;-5.708;2023-02-28T09:09:51;24.00;;;5.80;;
60233;SDS011;49514;43.538;-5.708;2023-02-28T09:12:22;28.33;;;6.18;;
60233;SDS011;49514;43.538;-5.708;2023-02-28T09:14:49;25.83;;;5.53;;
60233;SDS011;49514;43.538;-5.708;2023-02-28T09:17:16;21.42;;;5.35;;
60233;SDS011;49514;43.538;-5.708;2023-02-28T09:19:43;20.58;;;5.13;;
60233;SDS011;49514;43.538;-5.708;2023-02-28T09:22:10;13.75;;;4.03;;
60233;SDS011;49514;43.538;-5.708;2023-02-28T09:24:37;9.52;;;2.45;;
60233;SDS011;49514;43.538;-5.708;2023-02-28T09:27:04;4.55;;;2.25;;
60233;SDS011;49514;43.538;-5.708;2023-02-28T09:29:32;16.25;;;2.10;;
60233;SDS011;49514;43.538;-5.708;2023-02-28T09:32:00;4.38;;;1.80;;
60233;SDS011;49514;43.538;-5.708;2023-02-28T09:34:27;5.57;;;2.00;;
60233;SDS011;49514;43.538;-5.708;2023-02-28T09:36:56;9.93;;;2.50;;
60233;SDS011;49514;43.538;-5.708;2023-02-28T09:39:23;5.97;;;2.40;;
60233;SDS011;49514;43.538;-5.708;2023-02-28T09:41:52;4.10;;;2.40;;
60233;SDS011;49514;43.538;-5.708;2023-02-28T09:47:47;10.75;;;2.80;;
60233;SDS011;49514;43.538;-5.708;2023-02-28T09:50:35;4.07;;;2.13;;
60233;SDS011;49514;43.538;-5.708;2023-02-28T09:53:02;8.82;;;1.92;;
60233;SDS011;49514;43.538;-5.708;2023-02-28T09:55:42;11.30;;;2.22;;
60233;SDS011;49514;43.538;-5.708;2023-02-28T09:58:21;4.47;;;1.90;;
60233;SDS011;49514;43.538;-5.708;2023-02-28T10:01:07;5.30;;;2.00;;
60233;SDS011;49514;43.538;-5.708;2023-02-28T10:06:26;6.43;;;2.00;;
60233;SDS011;49514;43.538;-5.708;2023-02-28T10:09:04;3.65;;;1.77;;
60233;SDS011;49514;43.538;-5.708;2023-02-28T10:12:08;11.20;;;1.88;;
60233;SDS011;49514;43.538;-5.708;2023-02-28T10:14:37;4.20;;;1.50;;
60233;SDS011;49514;43.538;-5.708;2023-02-28T10:17:11;5.65;;;2.20;;
60233;SDS011;49514;43.538;-5.708;2023-02-28T10:19:55;10.73;;;1.73;;
60233;SDS011;49514;43.538;-5.708;2023-02-28T10:24:56;5.18;;;1.90;;
60233;SDS011;49514;43.538;-5.708;2023-02-28T10:27:29;2.83;;;1.50;;
60233;SDS011;49514;43.538;-5.708;2023-02-28T10:30:00;2.90;;;1.58;;
60233;SDS011;49514;43.538;-5.708;2023-02-28T10:32:29;5.55;;;1.85;;
60233;SDS011;49514;43.538;-5.708;2023-02-28T10:37:33;4.65;;;2.15;;
60233;SDS011;49514;43.538;-5.708;2023-02-28T10:40:05;2.50;;;1.50;;
60233;SDS011;49514;43.538;-5.708;2023-02-28T10:42:55;2.58;;;1.50;;
60233;SDS011;49514;43.538;-5.708;2023-02-28T10:45:30;3.30;;;1.50;;
60233;SDS011;49514;43.538;-5.708;2023-02-28T10:55:56;9.43;;;2.28;;
60233;SDS011;49514;43.538;-5.708;2023-02-28T10:58:33;3.15;;;1.52;;
60233;SDS011;49514;43.538;-5.708;2023-02-28T11:03:43;4.70;;;1.90;;
60233;SDS011;49514;43.538;-5.708;2023-02-28T11:06:14;6.90;;;1.70;;
60233;SDS011;49514;43.538;-5.708;2023-02-28T11:08:47;3.00;;;1.52;;
60233;SDS011;49514;43.538;-5.708;2023-02-28T11:11:19;5.57;;;2.17;;
60233;SDS011;49514;43.538;-5.708;2023-02-28T11:13:50;4.35;;;1.65;;
60233;SDS011;49514;43.538;-5.708;2023-02-28T11:16:19;2.60;;;1.20;;
60233;SDS011;49514;43.538;-5.708;2023-02-28T11:18:48;4.72;;;1.60;;
60233;SDS011;49514;43.538;-5.708;2023-02-28T11:21:19;6.07;;;1.40;;
60233;SDS011;49514;43.538;-5.708;2023-02-28T11:23:46;4.80;;;1.33;;
60233;SDS011;49514;43.538;-5.708;2023-02-28T11:26:15;2.63;;;1.30;;
60233;SDS011;49514;43.538;-5.708;2023-02-28T11:29:11;3.42;;;1.65;;
60233;SDS011;49514;43.538;-5.708;2023-02-28T11:34:45;3.65;;;1.88;;
60233;SDS011;49514;43.538;-5.708;2023-02-28T11:37:16;7.30;;;1.65;;
60233;SDS011;49514;43.538;-5.708;2023-02-28T11:39:45;6.50;;;1.60;;
60233;SDS011;49514;43.538;-5.708;2023-02-28T11:44:55;4.03;;;1.60;;
60233;SDS011;49514;43.538;-5.708;2023-02-28T11:53:05;5.72;;;1.75;;
60233;SDS011;49514;43.538;-5.708;2023-02-28T11:55:46;6.97;;;2.10;;
60233;SDS011;49514;43.538;-5.708;2023-02-28T12:06:21;6.40;;;1.60;;
60233;SDS011;49514;43.538;-5.708;2023-02-28T12:11:53;7.65;;;1.63;;
60233;SDS011;49514;43.538;-5.708;2023-02-28T12:19:57;7.25;;;1.60;;
60233;SDS011;49514;43.538;-5.708;2023-02-28T12:22:34;3.95;;;1.73;;
60233;SDS011;49514;43.538;-5.708;2023-02-28T12:27:58;6.53;;;1.58;;
60233;SDS011;49514;43.538;-5.708;2023-02-28T12:30:35;5.03;;;1.80;;
60233;SDS011;49514;43.538;-5.708;2023-02-28T12:33:16;7.07;;;1.48;;
60233;SDS011;49514;43.538;-5.708;2023-02-28T12:35:48;3.53;;;1.50;;
60233;SDS011;49514;43.538;-5.708;2023-02-28T12:38:26;5.60;;;1.67;;
60233;SDS011;49514;43.538;-5.708;2023-02-28T12:41:00;6.22;;;1.92;;
60233;SDS011;49514;43.538;-5.708;2023-02-28T12:44:02;4.97;;;1.80;;
60233;SDS011;49514;43.538;-5.708;2023-02-28T12:46:45;7.85;;;2.03;;
60233;SDS011;49514;43.538;-5.708;2023-02-28T12:50:03;2.05;;;1.50;;
60233;SDS011;49514;43.538;-5.708;2023-02-28T12:52:08;10.00;;;1.70;;
60233;SDS011;49514;43.538;-5.708;2023-02-28T12:54:50;4.87;;;2.30;;
60233;SDS011;49514;43.538;-5.708;2023-02-28T12:57:32;4.13;;;1.60;;
60233;SDS011;49514;43.538;-5.708;2023-02-28T13:00:10;5.05;;;1.70;;
60233;SDS011;49514;43.538;-5.708;2023-02-28T13:11:28;4.13;;;1.88;;
60233;SDS011;49514;43.538;-5.708;2023-02-28T13:14:02;4.13;;;1.65;;
60233;SDS011;49514;43.538;-5.708;2023-02-28T13:25:02;7.93;;;2.40;;
60233;SDS011;49514;43.538;-5.708;2023-02-28T13:27:49;10.18;;;1.83;;
60233;SDS011;49514;43.538;-5.708;2023-02-28T13:31:05;4.95;;;2.22;;
60233;SDS011;49514;43.538;-5.708;2023-02-28T13:33:31;5.18;;;2.40;;
60233;SDS011;49514;43.538;-5.708;2023-02-28T13:38:46;4.95;;;2.25;;
60233;SDS011;49514;43.538;-5.708;2023-02-28T13:44:38;7.47;;;1.85;;
60233;SDS011;49514;43.538;-5.708;2023-02-28T13:51:49;4.22;;;1.70;;
60233;SDS011;49514;43.538;-5.708;2023-02-28T14:02:50;6.97;;;1.67;;
60233;SDS011;49514;43.538;-5.708;2023-02-28T14:05:37;3.83;;;1.50;;
60233;SDS011;49514;43.538;-5.708;2023-02-28T14:08:10;5.43;;;2.13;;
60233;SDS011;49514;43.538;-5.708;2023-02-28T14:11:08;6.22;;;1.42;;
60233;SDS011;49514;43.538;-5.708;2023-02-28T14:13:49;6.95;;;1.83;;
60233;SDS011;49514;43.538;-5.708;2023-02-28T14:16:17;8.27;;;2.00;;
60233;SDS011;49514;43.538;-5.708;2023-02-28T14:18:49;3.28;;;1.65;;
60233;SDS011;49514;43.538;-5.708;2023-02-28T14:21:34;5.53;;;1.55;;
60233;SDS011;49514;43.538;-5.708;2023-02-28T14:24:10;4.75;;;1.65;;
60233;SDS011;49514;43.538;-5.708;2023-02-28T14:29:33;5.88;;;1.83;;
60233;SDS011;49514;43.538;-5.708;2023-02-28T14:37:30;5.68;;;1.60;;
60233;SDS011;49514;43.538;-5.708;2023-02-28T14:40:02;5.63;;;1.90;;
60233;SDS011;49514;43.538;-5.708;2023-02-28T14:42:34;4.47;;;1.60;;
60233;SDS011;49514;43.538;-5.708;2023-02-28T14:45:04;7.37;;;1.90;;
60233;SDS011;49514;43.538;-5.708;2023-02-28T14:50:02;4.95;;;1.67;;
60233;SDS011;49514;43.538;-5.708;2023-02-28T14:52:31;3.97;;;1.60;;
60233;SDS011;49514;43.538;-5.708;2023-02-28T14:55:01;4.63;;;1.70;;
60233;SDS011;49514;43.538;-5.708;2023-02-28T14:57:34;4.68;;;1.70;;
60233;SDS011;49514;43.538;-5.708;2023-02-28T15:03:22;4.82;;;1.70;;
60233;SDS011;49514;43.538;-5.708;2023-02-28T15:05:56;4.03;;;1.50;;
60233;SDS011;49514;43.538;-5.708;2023-02-28T15:08:25;3.72;;;1.50;;
60233;SDS011;49514;43.538;-5.708;2023-02-28T15:10:55;6.77;;;1.70;;
60233;SDS011;49514;43.538;-5.708;2023-02-28T15:13:31;3.25;;;1.50;;
60233;SDS011;49514;43.538;-5.708;2023-02-28T15:16:10;5.30;;;1.85;;
60233;SDS011;49514;43.538;-5.708;2023-02-28T15:18:48;2.93;;;1.30;;
60233;SDS011;49514;43.538;-5.708;2023-02-28T16:49:02;5.47;;;1.40;;
60233;SDS011;49514;43.538;-5.708;2023-02-28T16:51:29;3.85;;;1.40;;
60233;SDS011;49514;43.538;-5.708;2023-02-28T16:53:55;4.75;;;1.50;;
60233;SDS011;49514;43.538;-5.708;2023-02-28T16:56:23;5.35;;;1.38;;
60233;SDS011;49514;43.538;-5.708;2023-02-28T16:58:51;5.30;;;1.63;;
60233;SDS011;49514;43.538;-5.708;2023-02-28T17:01:21;3.45;;;1.48;;
60233;SDS011;49514;43.538;-5.708;2023-02-28T17:03:48;6.82;;;1.63;;
60233;SDS011;49514;43.538;-5.708;2023-02-28T17:06:19;2.30;;;1.35;;
60233;SDS011;49514;43.538;-5.708;2023-02-28T17:08:49;7.68;;;1.77;;
60233;SDS011;49514;43.538;-5.708;2023-02-28T17:11:17;6.80;;;1.90;;
60233;SDS011;49514;43.538;-5.708;2023-02-28T17:13:44;6.47;;;1.65;;
60233;SDS011;49514;43.538;-5.708;2023-02-28T17:18:54;2.63;;;1.55;;
60233;SDS011;49514;43.538;-5.708;2023-02-28T17:21:24;4.22;;;1.48;;
60233;SDS011;49514;43.538;-5.708;2023-02-28T17:23:51;4.47;;;1.58;;
60233;SDS011;49514;43.538;-5.708;2023-02-28T17:26:19;4.60;;;1.70;;
60233;SDS011;49514;43.538;-5.708;2023-02-28T17:28:47;5.68;;;1.70;;
60233;SDS011;49514;43.538;-5.708;2023-02-28T17:31:16;3.03;;;1.60;;
60233;SDS011;49514;43.538;-5.708;2023-02-28T17:33:43;4.70;;;1.77;;
60233;SDS011;49514;43.538;-5.708;2023-02-28T17:36:18;3.47;;;1.90;;
60233;SDS011;49514;43.538;-5.708;2023-02-28T17:38:48;6.70;;;2.50;;
60233;SDS011;49514;43.538;-5.708;2023-02-28T17:41:15;3.85;;;2.00;;
60233;SDS011;49514;43.538;-5.708;2023-02-28T17:43:42;5.30;;;2.10;;
60233;SDS011;49514;43.538;-5.708;2023-02-28T17:46:14;2.72;;;1.90;;
60233;SDS011;49514;43.538;-5.708;2023-02-28T17:48:49;3.42;;;1.88;;
60233;SDS011;49514;43.538;-5.708;2023-02-28T17:51:18;2.75;;;1.65;;
60233;SDS011;49514;43.538;-5.708;2023-02-28T17:53:46;3.83;;;1.58;;
60233;SDS011;49514;43.538;-5.708;2023-02-28T17:56:13;4.90;;;2.13;;
60233;SDS011;49514;43.538;-5.708;2023-02-28T17:58:48;9.35;;;2.38;;
60233;SDS011;49514;43.538;-5.708;2023-02-28T18:01:16;7.60;;;2.90;;
60233;SDS011;49514;43.538;-5.708;2023-02-28T18:03:43;7.68;;;2.95;;
60233;SDS011;49514;43.538;-5.708;2023-02-28T18:06:19;4.82;;;2.60;;
60233;SDS011;49514;43.538;-5.708;2023-02-28T18:09:17;4.97;;;3.13;;
60233;SDS011;49514;43.538;-5.708;2023-02-28T18:11:51;15.77;;;9.00;;
60233;SDS011;49514;43.538;-5.708;2023-02-28T18:14:21;13.52;;;5.80;;
60233;SDS011;49514;43.538;-5.708;2023-02-28T18:16:50;7.15;;;3.15;;
60233;SDS011;49514;43.538;-5.708;2023-02-28T18:19:19;5.50;;;3.22;;
60233;SDS011;49514;43.538;-5.708;2023-02-28T18:21:47;6.22;;;3.20;;
60233;SDS011;49514;43.538;-5.708;2023-02-28T18:24:18;5.13;;;3.00;;
60233;SDS011;49514;43.538;-5.708;2023-02-28T18:26:46;4.40;;;2.10;;
60233;SDS011;49514;43.538;-5.708;2023-02-28T18:29:23;4.57;;;2.13;;
60233;SDS011;49514;43.538;-5.708;2023-02-28T18:31:52;6.10;;;2.25;;
60233;SDS011;49514;43.538;-5.708;2023-02-28T18:34:20;7.88;;;3.20;;
60233;SDS011;49514;43.538;-5.708;2023-02-28T18:36:48;5.95;;;2.53;;
60233;SDS011;49514;43.538;-5.708;2023-02-28T18:39:17;8.02;;;2.35;;
60233;SDS011;49514;43.538;-5.708;2023-02-28T18:41:44;4.68;;;1.92;;
60233;SDS011;49514;43.538;-5.708;2023-02-28T18:44:10;7.20;;;2.70;;
60233;SDS011;49514;43.538;-5.708;2023-02-28T18:46:39;4.82;;;2.33;;
60233;SDS011;49514;43.538;-5.708;2023-02-28T18:49:05;6.07;;;2.45;;
60233;SDS011;49514;43.538;-5.708;2023-02-28T18:51:32;5.60;;;2.22;;
60233;SDS011;49514;43.538;-5.708;2023-02-28T18:53:59;5.85;;;2.28;;